Time;durP1;ratioP1;P1;durP2;ratioP2;P2;SDS_P1;SDS_P2;PMS_P1;PMS_P2;Temp;Humidity;BMP_temperature;BMP_pressure;BME280_temperature;BME280_humidity;BME280_pressure;Samples;Min_cycle;Max_cycle;Signal;HPM_P1;HPM_P2
2021/12/22 00:00:44;;;;;;;20.63;15.43;;;;;;;;;;5043551;28;24416;-57
2021/12/22 00:03:09;;;;;;;20.03;16.47;;;;;;;;;;5054287;28;24836;-57
2021/12/22 00:05:43;;;;;;;20.30;15.70;;;;;;;;;;5054851;28;24415;-58
2021/12/22 00:08:08;;;;;;;21.30;16.42;;;;;;;;;;5054260;28;24526;-56
2021/12/22 00:10:33;;;;;;;20.00;15.00;;;;;;;;;;5047276;28;24577;-60
2021/12/22 00:12:58;;;;;;;21.67;16.27;;;;;;;;;;5050444;28;24832;-59
2021/12/22 00:15:23;;;;;;;21.50;16.60;;;;;;;;;;5056938;28;24411;-59
2021/12/22 00:17:49;;;;;;;22.15;16.80;;;;;;;;;;5049435;28;24408;-59
2021/12/22 00:20:14;;;;;;;22.20;17.15;;;;;;;;;;5054170;28;24415;-59
2021/12/22 00:22:39;;;;;;;19.45;16.17;;;;;;;;;;5044737;28;25007;-57
2021/12/22 00:25:05;;;;;;;23.50;17.17;;;;;;;;;;5043145;28;24420;-57
2021/12/22 00:27:30;;;;;;;21.48;16.75;;;;;;;;;;5050280;28;24506;-57
2021/12/22 00:29:55;;;;;;;22.30;16.70;;;;;;;;;;5047678;28;24922;-58
2021/12/22 00:32:21;;;;;;;19.97;15.63;;;;;;;;;;5041018;28;24588;-58
2021/12/22 00:34:50;;;;;;;20.33;15.90;;;;;;;;;;5040654;28;24511;-58
2021/12/22 00:37:21;;;;;;;21.05;16.05;;;;;;;;;;5051222;28;24419;-58
2021/12/22 00:39:47;;;;;;;22.35;16.08;;;;;;;;;;5054495;28;24509;-58
2021/12/22 00:42:12;;;;;;;21.38;16.73;;;;;;;;;;5048046;28;24495;-56
2021/12/22 00:44:38;;;;;;;22.03;16.40;;;;;;;;;;5047212;28;24553;-57
2021/12/22 00:47:04;;;;;;;24.23;17.25;;;;;;;;;;5053356;28;25155;-57
2021/12/22 00:49:29;;;;;;;23.10;16.63;;;;;;;;;;5050002;28;24434;-57
2021/12/22 00:51:54;;;;;;;20.10;16.20;;;;;;;;;;5046033;28;24418;-58
2021/12/22 00:54:19;;;;;;;22.02;16.25;;;;;;;;;;5040732;28;24418;-57
2021/12/22 00:56:44;;;;;;;19.15;15.90;;;;;;;;;;5050950;28;24443;-58
2021/12/22 00:59:10;;;;;;;21.75;17.38;;;;;;;;;;5044784;28;24853;-59
2021/12/22 01:01:35;;;;;;;20.60;16.30;;;;;;;;;;5052578;28;24434;-59
2021/12/22 01:04:00;;;;;;;21.23;16.10;;;;;;;;;;5048685;28;24429;-57
2021/12/22 01:06:26;;;;;;;18.53;15.03;;;;;;;;;;5059094;28;24451;-57
2021/12/22 01:08:51;;;;;;;19.85;16.05;;;;;;;;;;5046243;28;24474;-57
2021/12/22 01:11:17;;;;;;;19.25;15.63;;;;;;;;;;5049348;28;24431;-57
2021/12/22 01:13:42;;;;;;;21.20;16.57;;;;;;;;;;5057344;28;25047;-57
2021/12/22 01:16:07;;;;;;;20.83;15.67;;;;;;;;;;5043632;28;24843;-57
2021/12/22 01:18:34;;;;;;;20.13;15.60;;;;;;;;;;5045268;28;24419;-58
2021/12/22 01:21:13;;;;;;;20.83;15.77;;;;;;;;;;5045130;28;24722;-56
2021/12/22 01:23:59;;;;;;;18.65;15.52;;;;;;;;;;5051402;28;24484;-58
2021/12/22 01:26:25;;;;;;;22.13;16.38;;;;;;;;;;5039699;28;24415;-58
2021/12/22 01:28:50;;;;;;;22.27;16.50;;;;;;;;;;5040107;28;24434;-58
2021/12/22 01:31:17;;;;;;;19.83;15.90;;;;;;;;;;5043268;28;24998;-58
2021/12/22 01:33:42;;;;;;;20.75;15.80;;;;;;;;;;5050108;28;24461;-58
2021/12/22 01:36:07;;;;;;;20.73;16.30;;;;;;;;;;5057927;28;24572;-58
2021/12/22 01:38:32;;;;;;;22.67;16.70;;;;;;;;;;5050685;28;24998;-57
2021/12/22 01:40:58;;;;;;;21.38;16.80;;;;;;;;;;5047034;28;24527;-58
2021/12/22 01:43:23;;;;;;;22.58;16.58;;;;;;;;;;5057382;28;24462;-58
2021/12/22 01:45:56;;;;;;;21.35;16.42;;;;;;;;;;5039640;28;24971;-57
2021/12/22 01:49:12;;;;;;;19.35;15.82;;;;;;;;;;5039618;28;25043;-58
2021/12/22 01:51:45;;;;;;;20.67;16.37;;;;;;;;;;5034676;28;24588;-58
2021/12/22 01:54:13;;;;;;;20.98;16.65;;;;;;;;;;5048642;28;24915;-58
2021/12/22 01:56:38;;;;;;;19.58;15.55;;;;;;;;;;5042808;28;24430;-58
2021/12/22 01:59:05;;;;;;;20.33;15.77;;;;;;;;;;5040022;28;24428;-58
2021/12/22 02:01:32;;;;;;;19.20;15.70;;;;;;;;;;5046386;28;24553;-58
2021/12/22 02:03:57;;;;;;;19.27;15.77;;;;;;;;;;5051861;28;24430;-58
2021/12/22 02:06:23;;;;;;;19.60;14.37;;;;;;;;;;5047763;28;24422;-57
2021/12/22 02:08:48;;;;;;;18.10;13.73;;;;;;;;;;5043416;28;24497;-58
2021/12/22 02:11:16;;;;;;;15.87;13.80;;;;;;;;;;5045502;28;24451;-57
2021/12/22 02:13:45;;;;;;;17.70;14.37;;;;;;;;;;5041114;28;24426;-58
2021/12/22 02:16:14;;;;;;;17.90;14.30;;;;;;;;;;5038940;28;24419;-58
2021/12/22 02:18:41;;;;;;;17.25;14.52;;;;;;;;;;5045017;28;24852;-57
2021/12/22 02:21:06;;;;;;;18.98;14.80;;;;;;;;;;5059506;28;24453;-57
2021/12/22 02:23:32;;;;;;;18.83;14.30;;;;;;;;;;5056636;28;24952;-58
2021/12/22 02:26:05;;;;;;;19.20;15.20;;;;;;;;;;5043333;28;24437;-58
2021/12/22 02:28:34;;;;;;;19.05;15.02;;;;;;;;;;5043878;28;24431;-58
2021/12/22 02:30:59;;;;;;;17.70;15.00;;;;;;;;;;5050127;28;24420;-58
2021/12/22 02:33:33;;;;;;;18.10;15.17;;;;;;;;;;5049776;28;24968;-56
2021/12/22 02:38:30;;;;;;;19.40;15.23;;;;;;;;;;5042637;28;24999;-57
2021/12/22 02:40:55;;;;;;;20.25;16.10;;;;;;;;;;5040487;28;24543;-57
2021/12/22 02:43:22;;;;;;;17.80;14.63;;;;;;;;;;5056936;28;24671;-56
2021/12/22 02:45:48;;;;;;;19.25;15.30;;;;;;;;;;5055681;28;24541;-57
2021/12/22 02:48:14;;;;;;;19.92;15.38;;;;;;;;;;5040300;28;24445;-57
2021/12/22 02:50:40;;;;;;;21.50;16.10;;;;;;;;;;5041787;28;24990;-57
2021/12/22 02:53:09;;;;;;;18.67;14.60;;;;;;;;;;5048475;28;24411;-57
2021/12/22 02:58:18;;;;;;;19.48;15.27;;;;;;;;;;5041734;28;24438;-58
2021/12/22 03:03:44;;;;;;;19.38;15.70;;;;;;;;;;5046904;28;24425;-58
2021/12/22 03:06:13;;;;;;;20.30;15.25;;;;;;;;;;5041086;28;24564;-58
2021/12/22 03:08:38;;;;;;;18.35;15.30;;;;;;;;;;5045382;28;24435;-57
2021/12/22 03:11:03;;;;;;;18.73;14.55;;;;;;;;;;5051893;28;24809;-58
2021/12/22 03:13:31;;;;;;;18.53;14.90;;;;;;;;;;5044535;28;24506;-57
2021/12/22 03:15:56;;;;;;;18.77;15.13;;;;;;;;;;5053917;28;24948;-57
2021/12/22 03:18:22;;;;;;;19.27;15.10;;;;;;;;;;5038350;28;24977;-58
2021/12/22 03:20:54;;;;;;;18.97;14.93;;;;;;;;;;5041658;28;24473;-57
2021/12/22 03:23:20;;;;;;;20.50;15.80;;;;;;;;;;5047623;28;25248;-57
2021/12/22 03:25:46;;;;;;;19.63;15.30;;;;;;;;;;5046924;28;24450;-58
2021/12/22 03:28:11;;;;;;;19.60;15.97;;;;;;;;;;5041645;28;24431;-58
2021/12/22 03:30:37;;;;;;;19.83;16.38;;;;;;;;;;5042177;28;25060;-57
2021/12/22 03:33:02;;;;;;;21.73;16.58;;;;;;;;;;5052046;28;24477;-58
2021/12/22 03:35:27;;;;;;;18.97;16.47;;;;;;;;;;5050025;28;24796;-58
2021/12/22 03:37:54;;;;;;;21.83;16.37;;;;;;;;;;5041102;28;24466;-57
2021/12/22 03:40:20;;;;;;;20.95;17.02;;;;;;;;;;5044155;28;24423;-58
2021/12/22 03:42:46;;;;;;;21.20;16.20;;;;;;;;;;5041075;28;24476;-58
2021/12/22 03:45:11;;;;;;;21.47;16.30;;;;;;;;;;5049468;28;24414;-57
2021/12/22 03:47:36;;;;;;;20.77;16.10;;;;;;;;;;5055046;28;24488;-57
2021/12/22 03:50:02;;;;;;;23.33;17.27;;;;;;;;;;5048607;28;24438;-57
2021/12/22 03:52:27;;;;;;;21.73;16.80;;;;;;;;;;5051537;28;25056;-57
2021/12/22 03:54:58;;;;;;;22.45;17.45;;;;;;;;;;5047693;28;24746;-57
2021/12/22 03:57:23;;;;;;;21.67;16.87;;;;;;;;;;5046365;28;24426;-56
2021/12/22 03:59:48;;;;;;;20.33;16.30;;;;;;;;;;5043372;28;24965;-58
2021/12/22 04:02:14;;;;;;;21.35;16.52;;;;;;;;;;5051924;28;24446;-58
2021/12/22 04:04:40;;;;;;;21.13;16.55;;;;;;;;;;5041376;28;24423;-58
2021/12/22 04:07:05;;;;;;;22.75;17.20;;;;;;;;;;5040637;28;24474;-57
2021/12/22 04:09:30;;;;;;;21.77;16.60;;;;;;;;;;5055498;28;24453;-58
2021/12/22 04:11:55;;;;;;;21.77;17.42;;;;;;;;;;5049452;28;24417;-58
2021/12/22 04:14:20;;;;;;;23.27;16.63;;;;;;;;;;5047853;28;24460;-58
2021/12/22 04:16:46;;;;;;;23.25;18.02;;;;;;;;;;5048153;28;24445;-58
2021/12/22 04:19:11;;;;;;;20.97;16.47;;;;;;;;;;5041884;28;24441;-58
2021/12/22 04:21:36;;;;;;;22.73;16.92;;;;;;;;;;5045018;28;24536;-58
2021/12/22 04:24:02;;;;;;;25.00;17.48;;;;;;;;;;5052895;28;24460;-58
2021/12/22 04:26:30;;;;;;;23.23;17.17;;;;;;;;;;5045291;28;24886;-58
2021/12/22 04:28:55;;;;;;;24.75;17.20;;;;;;;;;;5046978;28;24514;-57
2021/12/22 04:31:20;;;;;;;23.55;16.33;;;;;;;;;;5049955;28;24522;-58
2021/12/22 04:33:45;;;;;;;22.48;16.35;;;;;;;;;;5045322;28;24407;-58
2021/12/22 04:36:11;;;;;;;21.75;16.25;;;;;;;;;;5045246;28;24953;-58
2021/12/22 04:38:36;;;;;;;22.80;17.33;;;;;;;;;;5052289;28;24451;-58
2021/12/22 04:41:01;;;;;;;24.20;17.50;;;;;;;;;;5050767;28;24465;-58
2021/12/22 04:43:28;;;;;;;23.70;17.80;;;;;;;;;;5043181;28;24435;-58
2021/12/22 04:45:53;;;;;;;21.03;17.27;;;;;;;;;;5045994;28;24429;-58
2021/12/22 04:48:18;;;;;;;23.77;18.38;;;;;;;;;;5040037;28;24435;-58
2021/12/22 04:50:44;;;;;;;23.30;17.37;;;;;;;;;;5040039;28;24415;-58
2021/12/22 04:53:14;;;;;;;21.73;16.52;;;;;;;;;;5043940;28;24399;-58
2021/12/22 04:55:39;;;;;;;24.13;17.17;;;;;;;;;;5046149;28;24515;-58
2021/12/22 04:58:04;;;;;;;20.42;15.10;;;;;;;;;;5045748;28;24494;-58
2021/12/22 05:00:30;;;;;;;22.23;16.43;;;;;;;;;;5043969;28;24442;-58
2021/12/22 05:02:56;;;;;;;24.17;17.48;;;;;;;;;;5045637;28;24419;-58
2021/12/22 05:05:21;;;;;;;25.37;17.20;;;;;;;;;;5047227;28;25096;-58
2021/12/22 05:07:47;;;;;;;23.23;16.83;;;;;;;;;;5045348;28;24412;-59
2021/12/22 05:10:13;;;;;;;20.88;16.67;;;;;;;;;;5051052;28;24432;-58
2021/12/22 05:12:38;;;;;;;23.63;16.73;;;;;;;;;;5043338;28;24426;-58
2021/12/22 05:15:04;;;;;;;23.03;16.97;;;;;;;;;;5040475;28;24414;-58
2021/12/22 05:20:10;;;;;;;25.52;18.27;;;;;;;;;;5051199;28;24518;-57
2021/12/22 05:22:35;;;;;;;23.60;17.38;;;;;;;;;;5056472;28;24502;-57
2021/12/22 05:25:02;;;;;;;23.83;16.73;;;;;;;;;;5052220;28;24419;-57
2021/12/22 05:27:28;;;;;;;23.33;17.98;;;;;;;;;;5060691;28;24415;-57
2021/12/22 05:29:53;;;;;;;27.57;18.57;;;;;;;;;;5039679;28;24485;-57
2021/12/22 05:32:18;;;;;;;28.60;20.47;;;;;;;;;;5046988;28;24415;-58
2021/12/22 05:34:43;;;;;;;28.67;21.17;;;;;;;;;;5050176;28;24932;-58
2021/12/22 05:37:08;;;;;;;26.00;20.80;;;;;;;;;;5047872;28;24426;-58
2021/12/22 05:39:33;;;;;;;27.97;21.10;;;;;;;;;;5055135;28;24415;-58
2021/12/22 05:41:59;;;;;;;23.85;19.70;;;;;;;;;;5059624;28;24442;-57
2021/12/22 05:44:24;;;;;;;23.33;18.27;;;;;;;;;;5046617;28;24420;-58
2021/12/22 05:46:49;;;;;;;22.95;18.20;;;;;;;;;;5051763;28;25316;-58
2021/12/22 05:49:15;;;;;;;21.77;17.30;;;;;;;;;;5049651;28;24441;-58
2021/12/22 05:51:40;;;;;;;24.13;18.25;;;;;;;;;;5044039;28;24522;-58
2021/12/22 05:54:05;;;;;;;22.70;18.77;;;;;;;;;;5052335;28;24410;-58
2021/12/22 05:56:30;;;;;;;24.07;17.37;;;;;;;;;;5045368;28;24419;-58
2021/12/22 05:58:56;;;;;;;22.77;17.70;;;;;;;;;;5047347;28;24421;-58
2021/12/22 06:01:21;;;;;;;25.23;19.60;;;;;;;;;;5049825;28;24544;-58
2021/12/22 06:03:46;;;;;;;23.77;18.63;;;;;;;;;;5056763;28;24426;-58
2021/12/22 06:06:11;;;;;;;23.50;17.73;;;;;;;;;;5039654;28;24462;-58
2021/12/22 06:08:36;;;;;;;21.02;16.60;;;;;;;;;;5037741;28;24540;-59
2021/12/22 06:11:02;;;;;;;21.00;16.70;;;;;;;;;;5040821;28;24971;-59
2021/12/22 06:13:27;;;;;;;22.48;16.48;;;;;;;;;;5038960;28;24801;-57
2021/12/22 06:15:52;;;;;;;21.63;16.63;;;;;;;;;;5050232;28;25003;-58
2021/12/22 06:18:17;;;;;;;21.92;16.92;;;;;;;;;;5036970;28;24420;-57
2021/12/22 06:20:42;;;;;;;22.83;18.27;;;;;;;;;;5039577;28;24846;-59
2021/12/22 06:23:08;;;;;;;21.93;17.97;;;;;;;;;;5054333;28;24460;-58
2021/12/22 06:25:33;;;;;;;22.53;17.50;;;;;;;;;;5055625;28;24529;-60
2021/12/22 06:27:58;;;;;;;24.23;17.87;;;;;;;;;;5040606;28;24850;-58
2021/12/22 06:30:23;;;;;;;22.33;17.90;;;;;;;;;;5034328;28;24422;-57
2021/12/22 06:32:49;;;;;;;24.83;18.23;;;;;;;;;;5046639;28;24833;-58
2021/12/22 06:35:15;;;;;;;25.02;18.17;;;;;;;;;;5054910;28;24433;-58
2021/12/22 06:37:41;;;;;;;23.40;18.10;;;;;;;;;;5042125;28;24414;-58
2021/12/22 06:40:07;;;;;;;22.55;17.90;;;;;;;;;;5052944;28;24421;-58
2021/12/22 06:42:32;;;;;;;22.23;18.70;;;;;;;;;;5054679;28;24856;-58
2021/12/22 06:44:58;;;;;;;25.90;19.77;;;;;;;;;;5052011;28;24474;-58
2021/12/22 06:47:23;;;;;;;22.53;18.00;;;;;;;;;;5050318;28;24450;-57
2021/12/22 06:49:48;;;;;;;27.10;20.05;;;;;;;;;;5049088;28;24442;-58
2021/12/22 06:52:13;;;;;;;23.35;19.08;;;;;;;;;;5042082;28;24517;-58
2021/12/22 06:54:38;;;;;;;26.85;18.70;;;;;;;;;;5057301;28;25050;-58
2021/12/22 06:57:03;;;;;;;24.70;17.65;;;;;;;;;;5060552;28;24430;-58
2021/12/22 06:59:29;;;;;;;24.17;17.27;;;;;;;;;;5051794;28;24425;-58
2021/12/22 07:01:54;;;;;;;21.20;16.20;;;;;;;;;;5044025;28;24418;-57
2021/12/22 07:04:19;;;;;;;19.77;15.13;;;;;;;;;;5053007;28;24815;-58
2021/12/22 07:06:44;;;;;;;20.23;16.03;;;;;;;;;;5047887;28;24823;-58
2021/12/22 07:09:09;;;;;;;21.83;16.47;;;;;;;;;;5057151;28;24453;-58
2021/12/22 07:11:36;;;;;;;22.48;16.15;;;;;;;;;;5043111;28;24407;-57
2021/12/22 07:14:01;;;;;;;21.50;16.33;;;;;;;;;;5048836;28;24564;-58
2021/12/22 07:16:26;;;;;;;20.33;14.82;;;;;;;;;;5053860;28;24521;-58
2021/12/22 07:18:52;;;;;;;21.87;16.67;;;;;;;;;;5059714;28;25024;-58
2021/12/22 07:21:17;;;;;;;23.23;17.50;;;;;;;;;;5056340;28;24414;-58
2021/12/22 07:23:42;;;;;;;19.80;15.40;;;;;;;;;;5062367;28;24571;-58
2021/12/22 07:26:13;;;;;;;21.75;15.77;;;;;;;;;;5061486;28;24496;-59
2021/12/22 07:28:38;;;;;;;23.30;16.35;;;;;;;;;;5057937;28;24932;-59
2021/12/22 07:31:03;;;;;;;19.90;15.97;;;;;;;;;;5059040;28;24492;-59
2021/12/22 07:33:28;;;;;;;21.50;16.10;;;;;;;;;;5048330;28;24414;-59
2021/12/22 07:36:01;;;;;;;20.08;15.55;;;;;;;;;;5063448;28;24487;-59
2021/12/22 07:38:30;;;;;;;19.50;15.23;;;;;;;;;;5049531;28;24506;-58
2021/12/22 07:40:59;;;;;;;20.50;15.82;;;;;;;;;;5055577;28;24798;-59
2021/12/22 07:43:24;;;;;;;22.13;15.25;;;;;;;;;;5055264;28;24491;-58
2021/12/22 07:45:50;;;;;;;20.20;15.40;;;;;;;;;;5061239;28;24492;-58
2021/12/22 07:48:15;;;;;;;21.48;15.80;;;;;;;;;;5060325;28;24581;-58
2021/12/22 07:50:40;;;;;;;19.83;16.08;;;;;;;;;;5057561;28;24389;-58
2021/12/22 07:53:05;;;;;;;20.10;16.20;;;;;;;;;;5057311;28;24447;-57
2021/12/22 07:55:30;;;;;;;19.53;15.10;;;;;;;;;;5061076;28;24410;-57
2021/12/22 07:57:55;;;;;;;18.90;15.50;;;;;;;;;;5065030;28;25058;-57
2021/12/22 08:00:21;;;;;;;20.80;15.53;;;;;;;;;;5060965;28;25031;-57
2021/12/22 08:02:46;;;;;;;18.10;15.20;;;;;;;;;;5061146;28;24390;-58
2021/12/22 08:05:11;;;;;;;20.03;15.40;;;;;;;;;;5064907;28;24409;-58
2021/12/22 08:07:36;;;;;;;19.53;14.50;;;;;;;;;;5047206;28;24419;-58
2021/12/22 08:10:03;;;;;;;18.93;14.83;;;;;;;;;;5043112;28;24538;-58
2021/12/22 08:12:28;;;;;;;19.27;14.75;;;;;;;;;;5040507;28;24426;-58
2021/12/22 08:14:53;;;;;;;19.17;14.45;;;;;;;;;;5041325;28;24917;-58
2021/12/22 08:17:20;;;;;;;21.35;14.93;;;;;;;;;;5052925;28;24500;-58
2021/12/22 08:19:45;;;;;;;19.80;14.90;;;;;;;;;;5064892;28;24523;-58
2021/12/22 08:22:10;;;;;;;19.20;14.97;;;;;;;;;;5062523;28;24406;-58
2021/12/22 08:24:37;;;;;;;19.58;14.98;;;;;;;;;;5060949;28;24506;-58
2021/12/22 08:27:02;;;;;;;17.27;13.80;;;;;;;;;;5060604;28;24438;-58
2021/12/22 08:29:27;;;;;;;19.42;13.93;;;;;;;;;;5061613;28;24532;-58
2021/12/22 08:31:53;;;;;;;16.40;13.75;;;;;;;;;;5045996;28;24427;-58
2021/12/22 08:34:24;;;;;;;15.33;13.37;;;;;;;;;;5040415;28;24395;-57
2021/12/22 08:39:33;;;;;;;15.98;13.32;;;;;;;;;;5042595;28;25007;-58
2021/12/22 08:41:58;;;;;;;16.92;13.20;;;;;;;;;;5045801;28;24419;-58
2021/12/22 08:44:25;;;;;;;16.83;13.30;;;;;;;;;;5043897;28;24449;-58
2021/12/22 08:46:51;;;;;;;17.00;13.77;;;;;;;;;;5042340;28;24392;-58
2021/12/22 08:49:17;;;;;;;17.42;13.60;;;;;;;;;;5039845;28;24840;-58
2021/12/22 08:51:42;;;;;;;14.43;12.65;;;;;;;;;;5042008;28;24400;-58
2021/12/22 08:54:07;;;;;;;14.52;12.02;;;;;;;;;;5043918;28;24756;-59
2021/12/22 08:56:32;;;;;;;16.70;13.10;;;;;;;;;;5060593;28;24451;-59
2021/12/22 08:58:58;;;;;;;14.53;12.30;;;;;;;;;;5062064;28;24518;-59
2021/12/22 09:01:24;;;;;;;15.18;11.95;;;;;;;;;;5058014;28;24461;-59
2021/12/22 09:03:50;;;;;;;15.88;12.43;;;;;;;;;;5060523;28;24983;-58
2021/12/22 09:06:15;;;;;;;15.10;12.15;;;;;;;;;;5063666;28;24452;-58
2021/12/22 09:08:41;;;;;;;13.83;12.10;;;;;;;;;;5065008;28;25024;-58
2021/12/22 09:11:06;;;;;;;17.48;12.60;;;;;;;;;;5059927;28;24402;-59
2021/12/22 09:13:31;;;;;;;14.30;12.20;;;;;;;;;;5039860;28;24482;-58
2021/12/22 09:15:56;;;;;;;14.00;12.43;;;;;;;;;;5041742;28;24498;-58
2021/12/22 09:18:21;;;;;;;15.87;13.37;;;;;;;;;;5041362;28;24415;-59
2021/12/22 09:20:46;;;;;;;21.05;14.20;;;;;;;;;;5045460;28;25071;-58
2021/12/22 09:23:12;;;;;;;15.17;12.10;;;;;;;;;;5041539;28;24399;-59
2021/12/22 09:25:37;;;;;;;16.73;13.20;;;;;;;;;;5040001;28;24468;-58
2021/12/22 09:28:02;;;;;;;14.93;12.30;;;;;;;;;;5039258;28;24464;-59
2021/12/22 09:30:35;;;;;;;15.07;12.67;;;;;;;;;;5046359;28;24519;-58
2021/12/22 09:33:00;;;;;;;15.70;13.00;;;;;;;;;;5045086;28;24925;-58
2021/12/22 09:35:27;;;;;;;16.13;12.70;;;;;;;;;;5041114;28;24504;-59
2021/12/22 09:37:52;;;;;;;14.23;11.93;;;;;;;;;;5039571;28;24480;-59
2021/12/22 09:40:18;;;;;;;14.40;12.70;;;;;;;;;;5039310;28;24490;-58
2021/12/22 09:42:43;;;;;;;14.23;12.73;;;;;;;;;;5043167;28;24446;-59
2021/12/22 09:45:08;;;;;;;12.20;10.90;;;;;;;;;;5044720;28;24415;-59
2021/12/22 09:47:49;;;;;;;14.27;11.90;;;;;;;;;;5062969;28;25037;-58
2021/12/22 09:50:23;;;;;;;13.52;11.32;;;;;;;;;;5058945;28;24424;-59
2021/12/22 09:52:49;;;;;;;14.35;12.45;;;;;;;;;;5061199;28;24407;-58
2021/12/22 09:55:14;;;;;;;14.33;12.00;;;;;;;;;;5062786;28;24402;-58
2021/12/22 09:57:39;;;;;;;12.93;11.50;;;;;;;;;;5060670;28;24988;-58
2021/12/22 10:00:05;;;;;;;14.53;12.40;;;;;;;;;;5059057;28;24395;-59
2021/12/22 10:02:30;;;;;;;13.60;12.20;;;;;;;;;;5060950;28;24395;-58
2021/12/22 10:04:56;;;;;;;14.27;12.50;;;;;;;;;;5059073;28;24741;-58
2021/12/22 10:07:26;;;;;;;13.83;12.07;;;;;;;;;;5062005;28;24483;-59
2021/12/22 10:09:52;;;;;;;12.98;11.57;;;;;;;;;;5062362;28;24418;-59
2021/12/22 10:12:23;;;;;;;15.65;12.05;;;;;;;;;;5060217;28;24393;-59
2021/12/22 10:14:49;;;;;;;13.32;11.57;;;;;;;;;;5062039;28;24803;-58
2021/12/22 10:17:25;;;;;;;15.13;11.80;;;;;;;;;;5061139;28;24444;-59
2021/12/22 10:19:53;;;;;;;14.93;13.30;;;;;;;;;;5063014;28;25021;-58
2021/12/22 10:22:18;;;;;;;13.82;11.68;;;;;;;;;;5057459;28;24403;-58
2021/12/22 10:24:44;;;;;;;12.00;10.80;;;;;;;;;;5058337;28;24393;-58
2021/12/22 10:27:11;;;;;;;12.75;10.98;;;;;;;;;;5061791;28;24423;-59
2021/12/22 10:29:36;;;;;;;12.63;11.30;;;;;;;;;;5062764;28;24480;-59
2021/12/22 10:32:06;;;;;;;14.43;12.40;;;;;;;;;;5063562;28;24885;-59
2021/12/22 10:34:32;;;;;;;16.00;13.40;;;;;;;;;;5059317;28;25019;-58
2021/12/22 10:36:57;;;;;;;13.60;11.10;;;;;;;;;;5059719;28;24498;-58
2021/12/22 10:39:27;;;;;;;14.85;11.55;;;;;;;;;;5057827;28;24457;-59
2021/12/22 10:41:53;;;;;;;12.23;10.93;;;;;;;;;;5061063;28;24414;-59
2021/12/22 10:44:19;;;;;;;14.55;12.05;;;;;;;;;;5062818;28;24403;-59
2021/12/22 10:46:46;;;;;;;14.02;11.57;;;;;;;;;;5062109;28;24464;-58
2021/12/22 10:49:20;;;;;;;13.10;11.80;;;;;;;;;;5059184;28;25147;-58
2021/12/22 10:52:05;;;;;;;14.63;11.90;;;;;;;;;;5057975;28;24482;-59
2021/12/22 10:54:36;;;;;;;16.30;11.87;;;;;;;;;;5058707;28;24429;-58
2021/12/22 10:57:02;;;;;;;14.60;11.93;;;;;;;;;;5063066;28;24406;-58
2021/12/22 10:59:28;;;;;;;14.50;11.82;;;;;;;;;;5060923;28;24968;-57
2021/12/22 11:01:54;;;;;;;14.50;12.37;;;;;;;;;;5059370;28;24406;-57
2021/12/22 11:04:23;;;;;;;21.50;12.65;;;;;;;;;;5057591;28;24486;-60
2021/12/22 11:06:53;;;;;;;14.05;11.73;;;;;;;;;;5058066;28;24456;-57
2021/12/22 11:09:19;;;;;;;14.13;11.75;;;;;;;;;;5052215;28;25033;-57
2021/12/22 11:11:49;;;;;;;12.55;11.20;;;;;;;;;;5061951;28;24539;-57
2021/12/22 11:14:14;;;;;;;12.32;11.02;;;;;;;;;;5037536;28;25017;-57
2021/12/22 11:16:49;;;;;;;11.52;9.90;;;;;;;;;;5040156;28;24964;-57
2021/12/22 11:19:14;;;;;;;13.20;10.83;;;;;;;;;;5058338;28;25084;-57
2021/12/22 11:21:52;;;;;;;13.65;11.10;;;;;;;;;;5061594;28;24399;-59
2021/12/22 11:24:17;;;;;;;16.30;12.25;;;;;;;;;;5057813;28;24739;-57
2021/12/22 11:26:42;;;;;;;12.80;11.00;;;;;;;;;;5057694;28;24395;-57
2021/12/22 11:29:07;;;;;;;12.95;11.05;;;;;;;;;;5057641;28;24434;-60
2021/12/22 11:31:32;;;;;;;12.20;10.83;;;;;;;;;;5063371;28;24509;-57
2021/12/22 11:33:58;;;;;;;11.87;10.67;;;;;;;;;;5067276;28;24391;-57
2021/12/22 11:36:24;;;;;;;12.77;11.30;;;;;;;;;;5061676;28;24438;-57
2021/12/22 11:38:50;;;;;;;14.43;12.50;;;;;;;;;;5059877;28;24419;-57
2021/12/22 11:41:18;;;;;;;14.57;12.40;;;;;;;;;;5060324;28;24442;-57
2021/12/22 11:43:44;;;;;;;13.38;11.70;;;;;;;;;;5048627;28;24471;-58
2021/12/22 11:46:10;;;;;;;14.95;13.38;;;;;;;;;;5054833;28;24807;-58
2021/12/22 11:48:35;;;;;;;14.33;12.03;;;;;;;;;;5041313;28;24563;-58
2021/12/22 11:51:01;;;;;;;15.13;12.23;;;;;;;;;;5043360;28;24422;-58
2021/12/22 11:53:46;;;;;;;13.38;11.68;;;;;;;;;;5055208;28;25468;-58
2021/12/22 11:56:31;;;;;;;13.20;10.93;;;;;;;;;;5062806;28;24414;-58
2021/12/22 11:58:56;;;;;;;14.98;11.70;;;;;;;;;;5066524;28;24722;-58
2021/12/22 12:01:22;;;;;;;14.10;12.60;;;;;;;;;;5063145;28;24405;-58
2021/12/22 12:03:47;;;;;;;12.60;11.30;;;;;;;;;;5059251;28;24458;-58
2021/12/22 12:06:17;;;;;;;12.13;10.93;;;;;;;;;;5061128;28;24482;-58
2021/12/22 12:08:44;;;;;;;12.48;11.20;;;;;;;;;;5064342;28;24425;-57
2021/12/22 12:11:10;;;;;;;13.25;11.85;;;;;;;;;;5064626;28;24825;-57
2021/12/22 12:13:49;;;;;;;12.25;10.95;;;;;;;;;;5062855;28;24438;-58
2021/12/22 12:21:50;;;;;;;12.35;10.90;;;;;;;;;;5066453;28;24390;-58
2021/12/22 12:24:30;;;;;;;13.10;11.63;;;;;;;;;;5059035;28;24422;-58
2021/12/22 12:26:55;;;;;;;13.50;10.40;;;;;;;;;;5062132;28;24438;-58
2021/12/22 12:29:39;;;;;;;12.10;10.90;;;;;;;;;;5065341;28;24411;-57
2021/12/22 12:32:04;;;;;;;11.48;10.38;;;;;;;;;;5062433;28;24420;-58
2021/12/22 12:34:30;;;;;;;13.70;12.30;;;;;;;;;;5060441;28;24522;-57
2021/12/22 12:36:55;;;;;;;12.23;10.43;;;;;;;;;;5060564;28;24407;-57
2021/12/22 12:39:39;;;;;;;11.77;10.57;;;;;;;;;;5061997;28;24482;-57
2021/12/22 12:42:04;;;;;;;12.73;11.18;;;;;;;;;;5066047;28;24398;-58
2021/12/22 12:44:29;;;;;;;14.14;11.16;;;;;;;;;;5059650;28;25249;-58
2021/12/22 12:46:54;;;;;;;12.85;10.70;;;;;;;;;;5062569;28;24447;-57
2021/12/22 12:49:20;;;;;;;11.52;10.40;;;;;;;;;;5061753;28;24421;-58
2021/12/22 12:51:47;;;;;;;12.32;11.07;;;;;;;;;;5065699;28;24440;-57
2021/12/22 12:54:18;;;;;;;14.05;12.13;;;;;;;;;;5063806;28;24387;-58
2021/12/22 12:56:45;;;;;;;15.60;12.90;;;;;;;;;;5061787;28;24482;-58
2021/12/22 12:59:12;;;;;;;13.30;11.90;;;;;;;;;;5060123;28;24403;-57
2021/12/22 13:01:46;;;;;;;18.23;13.63;;;;;;;;;;5063702;28;24459;-58
2021/12/22 13:04:22;;;;;;;13.75;12.35;;;;;;;;;;5063573;28;24943;-58
2021/12/22 13:06:48;;;;;;;12.40;10.70;;;;;;;;;;5062084;28;24413;-58
2021/12/22 13:09:31;;;;;;;14.35;12.85;;;;;;;;;;5059500;28;25379;-58
2021/12/22 13:12:02;;;;;;;14.13;12.63;;;;;;;;;;5063229;28;24600;-58
2021/12/22 13:17:11;;;;;;;13.13;11.50;;;;;;;;;;5059839;28;24443;-58
2021/12/22 13:19:40;;;;;;;13.30;12.00;;;;;;;;;;5060691;28;24395;-58
2021/12/22 13:22:24;;;;;;;13.50;12.18;;;;;;;;;;5064880;28;24756;-58
2021/12/22 13:25:04;;;;;;;14.48;12.73;;;;;;;;;;5062868;28;24494;-58
2021/12/22 13:27:30;;;;;;;13.55;12.15;;;;;;;;;;5058990;28;24508;-58
2021/12/22 13:30:05;;;;;;;16.07;14.37;;;;;;;;;;5060765;28;24805;-58
2021/12/22 13:32:30;;;;;;;17.45;13.40;;;;;;;;;;5062968;28;24414;-59
2021/12/22 13:34:59;;;;;;;15.37;12.80;;;;;;;;;;5064292;28;24453;-58
2021/12/22 13:37:24;;;;;;;13.95;12.55;;;;;;;;;;5059981;28;24765;-58
2021/12/22 13:39:49;;;;;;;15.37;12.80;;;;;;;;;;5058919;28;24912;-58
2021/12/22 13:42:14;;;;;;;13.90;12.50;;;;;;;;;;5058688;28;24467;-58
2021/12/22 13:44:39;;;;;;;13.90;12.40;;;;;;;;;;5062471;28;24433;-58
2021/12/22 13:47:05;;;;;;;14.10;12.60;;;;;;;;;;5062508;28;24407;-58
2021/12/22 13:49:31;;;;;;;13.82;12.32;;;;;;;;;;5060279;28;24426;-58
2021/12/22 13:51:56;;;;;;;13.45;12.15;;;;;;;;;;5060367;28;24478;-58
2021/12/22 13:54:23;;;;;;;13.18;11.88;;;;;;;;;;5059297;28;24391;-58
2021/12/22 13:56:49;;;;;;;13.20;12.00;;;;;;;;;;5061903;28;24787;-58
2021/12/22 13:59:16;;;;;;;12.75;11.30;;;;;;;;;;5059596;28;24403;-58
2021/12/22 14:01:42;;;;;;;12.18;10.88;;;;;;;;;;5058466;28;24387;-58
2021/12/22 14:04:08;;;;;;;13.37;11.80;;;;;;;;;;5057161;28;24480;-58
2021/12/22 14:06:35;;;;;;;12.27;11.07;;;;;;;;;;5062164;28;24990;-58
2021/12/22 14:09:00;;;;;;;15.00;13.23;;;;;;;;;;5061609;28;24445;-58
2021/12/22 14:11:26;;;;;;;12.83;11.57;;;;;;;;;;5057547;28;24394;-58
2021/12/22 14:13:52;;;;;;;14.80;12.52;;;;;;;;;;5043683;28;24419;-58
2021/12/22 14:16:29;;;;;;;13.90;12.50;;;;;;;;;;5050516;28;24423;-58
2021/12/22 14:18:57;;;;;;;13.20;11.80;;;;;;;;;;5046965;28;24426;-57
2021/12/22 14:21:23;;;;;;;15.23;12.60;;;;;;;;;;5054446;28;25474;-57
2021/12/22 14:24:01;;;;;;;14.35;12.93;;;;;;;;;;5060051;28;24474;-57
2021/12/22 14:26:27;;;;;;;14.48;12.88;;;;;;;;;;5057779;28;24406;-57
2021/12/22 14:29:02;;;;;;;14.55;12.80;;;;;;;;;;5051407;28;24422;-59
2021/12/22 14:31:28;;;;;;;14.65;12.30;;;;;;;;;;5056853;28;24404;-60
2021/12/22 14:34:13;;;;;;;15.10;12.27;;;;;;;;;;5054105;28;24967;-57
2021/12/22 14:36:45;;;;;;;15.43;13.85;;;;;;;;;;5050971;28;24442;-57